createdAt,value
2018-10-04T00:01:12.191Z,19.93
2018-10-04T00:03:39.476Z,11.33
2018-10-04T00:06:06.714Z,11.53
2018-10-04T00:08:33.909Z,10.33
2018-10-04T00:11:01.178Z,7.70
2018-10-04T00:13:28.428Z,15.00
2018-10-04T00:15:55.599Z,14.90
2018-10-04T00:18:22.807Z,16.33
2018-10-04T00:20:50.017Z,13.33
2018-10-04T00:23:17.297Z,13.07
2018-10-04T00:25:44.475Z,14.63
2018-10-04T00:28:11.659Z,7.57
2018-10-04T00:30:38.874Z,19.20
2018-10-04T00:33:06.161Z,9.97
2018-10-04T00:35:33.486Z,25.63
2018-10-04T00:38:00.733Z,9.83
2018-10-04T00:40:28.005Z,10.53
2018-10-04T00:42:55.270Z,13.20
2018-10-04T00:45:22.527Z,9.50
2018-10-04T00:47:49.787Z,10.77
2018-10-04T00:50:17.037Z,11.40
2018-10-04T00:52:44.369Z,13.00
2018-10-04T00:55:11.610Z,5.77
2018-10-04T00:57:38.881Z,7.63
2018-10-04T01:00:06.231Z,7.37
2018-10-04T01:02:33.460Z,11.53
2018-10-04T01:05:00.855Z,8.97
2018-10-04T01:07:28.115Z,9.73
2018-10-04T01:09:55.348Z,10.83
2018-10-04T01:12:22.726Z,7.97
2018-10-04T01:14:49.953Z,7.67
2018-10-04T01:17:17.218Z,5.57
2018-10-04T01:19:44.470Z,10.80
2018-10-04T01:22:11.686Z,5.10
2018-10-04T01:24:38.969Z,10.77
2018-10-04T01:27:06.192Z,7.57
2018-10-04T01:29:33.546Z,5.97
2018-10-04T01:32:00.818Z,5.80
2018-10-04T01:34:28.075Z,11.70
2018-10-04T01:36:55.357Z,6.90
2018-10-04T01:39:22.568Z,8.20
2018-10-04T01:41:49.862Z,5.20
2018-10-04T01:44:17.073Z,13.00
2018-10-04T01:46:44.349Z,16.07
2018-10-04T01:49:11.625Z,8.77
2018-10-04T01:51:38.905Z,10.23
2018-10-04T01:54:06.361Z,12.13
2018-10-04T01:56:33.673Z,12.30
2018-10-04T01:59:00.910Z,18.27
2018-10-04T02:01:28.203Z,10.10
2018-10-04T02:03:55.680Z,11.60
2018-10-04T02:06:22.998Z,10.73
2018-10-04T02:08:50.213Z,10.00
2018-10-04T02:11:17.469Z,5.90
2018-10-04T02:13:44.782Z,11.33
2018-10-04T02:16:12.069Z,10.03
2018-10-04T02:18:39.365Z,7.00
2018-10-04T02:21:06.570Z,9.30
2018-10-04T02:23:33.894Z,12.97
2018-10-04T02:26:01.206Z,14.00
2018-10-04T02:28:28.433Z,14.27
2018-10-04T02:30:55.781Z,9.30
2018-10-04T02:33:23.083Z,9.10
2018-10-04T02:35:50.294Z,7.43
2018-10-04T02:38:17.582Z,8.53
2018-10-04T02:40:44.856Z,8.67
2018-10-04T02:43:12.209Z,9.43
2018-10-04T02:45:39.462Z,9.77
2018-10-04T02:48:06.735Z,10.23
2018-10-04T02:50:34.023Z,8.33
2018-10-04T02:53:01.271Z,16.50
2018-10-04T02:55:34.365Z,14.20
2018-10-04T02:58:01.669Z,15.50
2018-10-04T03:00:30.257Z,9.63
2018-10-04T03:02:57.526Z,12.80
2018-10-04T03:05:24.814Z,11.87
2018-10-04T03:07:52.138Z,10.33
2018-10-04T03:10:19.488Z,10.03
2018-10-04T03:12:46.835Z,8.13
2018-10-04T03:15:14.151Z,16.50
2018-10-04T03:17:41.397Z,13.83
2018-10-04T03:20:08.771Z,7.27
2018-10-04T03:22:35.960Z,10.90
2018-10-04T03:25:03.302Z,10.80
2018-10-04T03:27:30.579Z,13.87
2018-10-04T03:29:57.962Z,10.83
2018-10-04T03:32:25.134Z,15.90
2018-10-04T03:34:52.398Z,13.50
2018-10-04T03:37:19.659Z,8.87
2018-10-04T03:39:46.872Z,14.33
2018-10-04T03:42:14.085Z,10.00
2018-10-04T03:44:41.449Z,8.60
2018-10-04T03:47:08.693Z,10.73
2018-10-04T03:49:36.006Z,7.93
2018-10-04T03:52:03.270Z,13.33
2018-10-04T03:54:30.469Z,12.50
2018-10-04T03:56:57.809Z,10.23
2018-10-04T03:59:25.170Z,13.37
2018-10-04T04:01:52.453Z,16.07
2018-10-04T04:04:19.701Z,8.90
2018-10-04T04:06:47.042Z,17.00
2018-10-04T04:09:14.397Z,9.33
2018-10-04T04:11:41.888Z,9.67
2018-10-04T04:14:09.149Z,14.37
2018-10-04T04:16:36.377Z,11.20
2018-10-04T04:19:03.985Z,13.60
2018-10-04T04:21:31.302Z,8.10
2018-10-04T04:23:58.634Z,5.73
2018-10-04T04:26:25.957Z,11.43
2018-10-04T04:28:53.354Z,16.63
2018-10-04T04:31:20.947Z,9.47
2018-10-04T04:33:48.389Z,17.57
2018-10-04T04:36:16.269Z,18.43
2018-10-04T04:38:43.977Z,10.07
2018-10-04T04:41:11.286Z,9.27
2018-10-04T04:43:38.538Z,6.07
2018-10-04T04:46:05.861Z,7.80
2018-10-04T04:48:33.157Z,8.87
2018-10-04T04:51:00.370Z,14.80
2018-10-04T04:53:36.878Z,4.47
2018-10-04T04:56:04.233Z,10.53
2018-10-04T04:58:31.450Z,9.50
2018-10-04T05:00:58.693Z,4.93
2018-10-04T05:03:25.952Z,10.80
2018-10-04T05:05:53.237Z,14.83
2018-10-04T05:08:20.560Z,10.83
2018-10-04T05:10:47.821Z,11.70
2018-10-04T05:13:15.129Z,19.03
2018-10-04T05:15:42.593Z,15.23
2018-10-04T05:18:09.830Z,10.20
2018-10-04T05:20:37.158Z,10.10
2018-10-04T05:23:04.442Z,9.80
2018-10-04T05:25:31.673Z,13.43
2018-10-04T05:27:58.988Z,13.00
2018-10-04T05:30:26.140Z,12.03
2018-10-04T05:32:53.478Z,8.97
2018-10-04T05:35:20.750Z,9.53
2018-10-04T05:37:47.986Z,9.70
2018-10-04T05:40:15.337Z,9.50
2018-10-04T05:42:42.713Z,13.83
2018-10-04T05:45:10.093Z,14.30
2018-10-04T05:47:37.316Z,12.97
2018-10-04T05:50:04.579Z,9.60
2018-10-04T05:52:31.815Z,15.30
2018-10-04T05:54:59.111Z,10.83
2018-10-04T05:57:26.432Z,11.57
2018-10-04T06:00:05.193Z,10.73
2018-10-04T06:02:32.489Z,14.97
2018-10-04T06:05:00.127Z,12.77
2018-10-04T06:07:27.232Z,11.83
2018-10-04T06:09:54.514Z,13.20
2018-10-04T06:12:21.831Z,13.93
2018-10-04T06:14:49.389Z,11.90
2018-10-04T06:17:16.842Z,12.77
2018-10-04T06:19:44.085Z,13.63
2018-10-04T06:22:11.374Z,13.00
2018-10-04T06:24:38.690Z,10.70
2018-10-04T06:27:05.913Z,16.17
2018-10-04T06:29:33.078Z,15.67
2018-10-04T06:32:00.364Z,19.53
2018-10-04T06:34:27.591Z,14.77
2018-10-04T06:36:54.883Z,10.80
2018-10-04T06:39:22.073Z,11.70
2018-10-04T06:41:49.345Z,12.40
2018-10-04T06:44:16.631Z,8.57
2018-10-04T06:46:43.794Z,13.47
2018-10-04T06:49:11.057Z,11.63
2018-10-04T06:51:38.341Z,17.30
2018-10-04T06:54:05.639Z,11.70
2018-10-04T06:56:32.826Z,15.60
2018-10-04T06:59:00.065Z,20.13
2018-10-04T07:01:27.467Z,14.57
2018-10-04T07:03:54.945Z,17.50
2018-10-04T07:06:22.086Z,15.93
2018-10-04T07:08:49.319Z,19.10
2018-10-04T07:11:16.513Z,20.53
2018-10-04T07:13:43.805Z,16.83
2018-10-04T07:16:11.025Z,14.80
2018-10-04T07:18:38.305Z,19.43
2018-10-04T07:21:05.640Z,15.03
2018-10-04T07:23:32.974Z,23.13
2018-10-04T07:26:00.178Z,17.67
2018-10-04T07:28:27.383Z,16.83
2018-10-04T07:30:54.661Z,21.50
2018-10-04T07:33:21.914Z,17.83
2018-10-04T07:35:49.105Z,16.30
2018-10-04T07:38:16.283Z,21.20
2018-10-04T07:40:43.466Z,13.57
2018-10-04T07:43:10.698Z,23.93
2018-10-04T07:45:37.950Z,25.83
2018-10-04T07:48:05.268Z,13.70
2018-10-04T07:50:32.454Z,16.53
2018-10-04T07:52:59.717Z,19.13
2018-10-04T07:55:27.231Z,14.90
2018-10-04T07:57:54.423Z,15.57
2018-10-04T08:00:21.664Z,26.77
2018-10-04T08:02:48.817Z,29.37
2018-10-04T08:05:16.022Z,19.53
2018-10-04T08:07:43.213Z,17.70
2018-10-04T08:10:10.404Z,26.23
2018-10-04T08:12:37.597Z,18.50
2018-10-04T08:15:04.831Z,22.50
2018-10-04T08:17:32.050Z,33.67
2018-10-04T08:19:59.285Z,24.70
2018-10-04T08:22:26.554Z,21.80
2018-10-04T08:24:53.766Z,24.20
2018-10-04T08:27:21.030Z,25.23
2018-10-04T08:29:48.309Z,32.13
2018-10-04T08:32:15.538Z,28.30
2018-10-04T08:34:43.062Z,29.07
2018-10-04T08:37:10.249Z,23.50
2018-10-04T08:39:37.487Z,25.60
2018-10-04T08:42:04.745Z,31.50
2018-10-04T08:44:31.902Z,22.83
2018-10-04T08:46:59.081Z,22.60
2018-10-04T08:49:26.445Z,20.17
2018-10-04T08:51:53.697Z,23.47
2018-10-04T08:54:26.824Z,21.80
2018-10-04T08:56:54.962Z,23.23
2018-10-04T08:59:22.715Z,23.53
2018-10-04T09:01:49.926Z,23.83
2018-10-04T09:04:17.126Z,24.00
2018-10-04T09:06:44.354Z,18.60
2018-10-04T09:09:11.593Z,18.27
2018-10-04T09:11:38.818Z,23.73
2018-10-04T09:14:06.025Z,24.77
2018-10-04T09:16:33.218Z,20.70
2018-10-04T09:19:00.524Z,19.83
2018-10-04T09:21:27.716Z,22.87
2018-10-04T09:23:54.926Z,22.37
2018-10-04T09:26:22.167Z,18.60
2018-10-04T09:28:55.062Z,24.60
2018-10-04T09:31:29.314Z,25.23
2018-10-04T09:33:56.604Z,22.87
2018-10-04T09:36:23.853Z,24.40
2018-10-04T09:38:51.061Z,25.50
2018-10-04T09:41:18.342Z,19.20
2018-10-04T09:43:45.770Z,22.77
2018-10-04T09:46:12.973Z,22.17
2018-10-04T09:48:44.326Z,25.00
2018-10-04T09:51:17.415Z,27.57
2018-10-04T09:53:50.481Z,20.40
2018-10-04T09:56:23.590Z,24.70
2018-10-04T09:58:50.917Z,23.97
2018-10-04T10:01:23.926Z,28.37
2018-10-04T10:03:51.170Z,21.60
2018-10-04T10:06:18.369Z,23.47
2018-10-04T10:08:45.633Z,25.03
2018-10-04T10:11:12.845Z,22.77
2018-10-04T10:13:40.025Z,29.03
2018-10-04T10:16:07.466Z,28.67
2018-10-04T10:18:34.629Z,25.47
2018-10-04T10:21:01.856Z,26.13
2018-10-04T10:23:29.054Z,21.97
2018-10-04T10:25:56.226Z,20.70
2018-10-04T10:28:23.450Z,21.67
2018-10-04T10:30:50.876Z,24.97
2018-10-04T10:33:18.054Z,22.57
2018-10-04T10:35:45.405Z,19.70
2018-10-04T10:38:12.597Z,16.90
2018-10-04T10:40:39.785Z,20.20
2018-10-04T10:43:07.162Z,19.07
2018-10-04T10:45:34.478Z,19.50
2018-10-04T10:48:01.733Z,17.17
2018-10-04T10:50:28.977Z,19.37
2018-10-04T10:52:56.346Z,19.27
2018-10-04T10:55:23.561Z,16.00
2018-10-04T10:57:50.747Z,17.60
2018-10-04T11:00:17.949Z,23.13
2018-10-04T11:02:45.133Z,16.83
2018-10-04T11:05:12.374Z,22.83
2018-10-04T11:07:39.623Z,21.63
2018-10-04T11:10:06.865Z,23.40
2018-10-04T11:12:34.077Z,21.40
2018-10-04T11:15:01.265Z,22.27
2018-10-04T11:17:28.491Z,22.10
2018-10-04T11:19:55.674Z,20.63
2018-10-04T11:22:22.885Z,19.47
2018-10-04T11:24:50.117Z,16.70
2018-10-04T11:27:18.102Z,23.70
2018-10-04T11:29:45.261Z,21.00
2018-10-04T11:32:12.519Z,20.63
2018-10-04T11:34:39.809Z,26.50
2018-10-04T11:37:07.031Z,21.43
2018-10-04T11:39:34.229Z,26.40
2018-10-04T11:42:01.522Z,26.67
2018-10-04T11:44:31.154Z,25.70
2018-10-04T11:47:01.938Z,26.10
2018-10-04T11:49:29.149Z,22.57
2018-10-04T11:51:56.377Z,21.00
2018-10-04T11:54:23.615Z,26.37
2018-10-04T11:56:50.812Z,26.73
2018-10-04T11:59:17.945Z,24.60
2018-10-04T12:01:45.303Z,22.47
2018-10-04T12:04:12.390Z,21.80
2018-10-04T12:06:39.630Z,21.63
2018-10-04T12:09:07.031Z,20.10
2018-10-04T12:11:34.258Z,20.97
2018-10-04T12:14:01.459Z,18.03
2018-10-04T12:16:28.773Z,20.17
2018-10-04T12:18:55.990Z,20.90
2018-10-04T12:21:23.146Z,22.93
2018-10-04T12:23:50.471Z,21.63
2018-10-04T12:26:17.637Z,17.10
2018-10-04T12:28:44.797Z,16.60
2018-10-04T12:31:12.083Z,21.57
2018-10-04T12:33:39.258Z,16.83
2018-10-04T12:36:06.867Z,15.33
2018-10-04T12:38:34.069Z,14.23
2018-10-04T12:41:01.310Z,17.50
2018-10-04T12:43:28.617Z,18.57
2018-10-04T12:45:55.845Z,14.90
2018-10-04T12:48:23.045Z,18.27
2018-10-04T12:50:50.334Z,13.00
2018-10-04T12:53:17.509Z,11.27
2018-10-04T12:55:44.858Z,20.33
2018-10-04T12:58:12.066Z,27.10
2018-10-04T13:00:39.289Z,14.20
2018-10-04T13:03:06.473Z,16.87
2018-10-04T13:05:33.650Z,15.73
2018-10-04T13:08:00.867Z,17.07
2018-10-04T13:10:28.110Z,17.70
2018-10-04T13:12:55.309Z,14.07
2018-10-04T13:15:22.488Z,14.83
2018-10-04T13:17:49.717Z,17.00
2018-10-04T13:20:16.935Z,14.60
2018-10-04T13:22:44.124Z,14.70
2018-10-04T13:25:11.441Z,14.30
2018-10-04T13:27:38.594Z,22.17
2018-10-04T13:30:06.084Z,18.43
2018-10-04T13:32:33.291Z,13.67
2018-10-04T13:35:00.457Z,12.47
2018-10-04T13:37:27.741Z,13.13
2018-10-04T13:39:54.921Z,16.97
2018-10-04T13:42:22.113Z,12.77
2018-10-04T13:44:49.332Z,13.97
2018-10-04T13:47:16.498Z,14.47
2018-10-04T13:49:43.690Z,15.70
2018-10-04T13:52:10.912Z,12.83
2018-10-04T13:54:38.090Z,20.27
2018-10-04T13:57:05.422Z,15.20
2018-10-04T13:59:32.626Z,14.70
2018-10-04T14:01:59.901Z,12.73
2018-10-04T14:04:27.090Z,15.40
2018-10-04T14:06:54.279Z,16.57
2018-10-04T14:09:21.443Z,14.03
2018-10-04T14:11:48.642Z,16.63
2018-10-04T14:14:15.950Z,17.97
2018-10-04T14:16:43.149Z,12.53
2018-10-04T14:19:10.410Z,12.90
2018-10-04T14:21:37.593Z,18.03
2018-10-04T14:24:04.909Z,13.73
2018-10-04T14:26:32.457Z,16.60
2018-10-04T14:28:59.662Z,15.13
2018-10-04T14:31:26.867Z,13.90
2018-10-04T14:33:54.062Z,19.97
2018-10-04T14:36:21.345Z,19.23
2018-10-04T14:38:48.571Z,13.37
2018-10-04T14:41:15.802Z,16.30
2018-10-04T14:43:42.981Z,13.83
2018-10-04T14:46:10.178Z,13.37
2018-10-04T14:48:37.425Z,12.47
2018-10-04T14:51:05.242Z,13.10
2018-10-04T14:53:32.420Z,14.70
2018-10-04T14:55:59.600Z,20.83
2018-10-04T14:58:26.889Z,17.13
2018-10-04T15:00:54.319Z,16.27
2018-10-04T15:03:21.588Z,13.60
2018-10-04T15:05:48.786Z,12.20
2018-10-04T15:08:15.975Z,10.23
2018-10-04T15:10:43.452Z,14.97
2018-10-04T15:13:10.618Z,11.93
2018-10-04T15:15:37.869Z,15.77
2018-10-04T15:18:05.198Z,16.27
2018-10-04T15:20:32.410Z,16.33
2018-10-04T15:22:59.746Z,13.20
2018-10-04T15:25:26.929Z,11.50
2018-10-04T15:27:54.249Z,15.80
2018-10-04T15:30:21.525Z,13.03
2018-10-04T15:32:48.722Z,11.50
2018-10-04T15:35:15.970Z,8.30
2018-10-04T15:37:43.212Z,15.30
2018-10-04T15:40:10.418Z,22.27
2018-10-04T15:42:37.611Z,11.33
2018-10-04T15:45:04.988Z,11.73
2018-10-04T15:47:32.188Z,11.97
2018-10-04T15:49:59.413Z,15.80
2018-10-04T15:52:26.753Z,12.10
2018-10-04T15:54:54.066Z,14.70
2018-10-04T15:57:21.286Z,16.00
2018-10-04T15:59:48.547Z,16.67
2018-10-04T16:02:15.762Z,21.77
2018-10-04T16:04:43.035Z,18.30
2018-10-04T16:07:10.243Z,15.50
2018-10-04T16:09:37.537Z,18.43
2018-10-04T16:12:05.227Z,8.53
2018-10-04T16:14:32.535Z,12.17
2018-10-04T16:16:59.762Z,11.93
2018-10-04T16:19:27.090Z,18.27
2018-10-04T16:21:54.433Z,12.13
2018-10-04T16:24:21.681Z,16.17
2018-10-04T16:26:48.861Z,8.87
2018-10-04T16:30:19.008Z,10.50
2018-10-04T16:32:46.302Z,7.87
2018-10-04T16:35:13.645Z,17.60
2018-10-04T16:37:41.778Z,17.30
2018-10-04T16:40:09.539Z,12.53
2018-10-04T16:42:36.873Z,13.00
2018-10-04T16:45:04.323Z,12.17
2018-10-04T16:47:31.573Z,12.63
2018-10-04T16:49:59.011Z,12.07
2018-10-04T16:52:26.294Z,17.80
2018-10-04T16:54:53.558Z,14.03
2018-10-04T16:57:20.865Z,13.00
2018-10-04T16:59:48.101Z,15.77
2018-10-04T17:02:15.413Z,13.40
2018-10-04T17:04:42.604Z,13.20
2018-10-04T17:07:09.797Z,15.00
2018-10-04T17:09:36.962Z,13.80
2018-10-04T17:12:04.207Z,18.07
2018-10-04T17:14:31.579Z,14.20
2018-10-04T17:16:59.525Z,12.70
2018-10-04T17:19:26.785Z,19.63
2018-10-04T17:21:54.006Z,14.43
2018-10-04T17:24:21.344Z,13.70
2018-10-04T17:26:48.576Z,13.80
2018-10-04T17:29:15.744Z,14.50
2018-10-04T17:31:43.390Z,13.73
2018-10-04T17:34:10.593Z,10.37
2018-10-04T17:36:37.986Z,10.37
2018-10-04T17:39:06.248Z,12.47
2018-10-04T17:41:33.557Z,13.73
2018-10-04T17:44:01.162Z,17.27
2018-10-04T17:46:28.821Z,12.80
2018-10-04T17:48:56.317Z,16.00
2018-10-04T17:51:23.596Z,17.77
2018-10-04T17:53:51.029Z,18.83
2018-10-04T17:56:18.209Z,14.80
2018-10-04T17:58:45.509Z,15.03
2018-10-04T18:01:12.872Z,18.60
2018-10-04T18:03:40.193Z,12.63
2018-10-04T18:06:07.654Z,14.03
2018-10-04T18:08:35.147Z,13.97
2018-10-04T18:11:02.489Z,13.50
2018-10-04T18:13:29.721Z,13.17
2018-10-04T18:15:57.005Z,17.80
2018-10-04T18:18:24.198Z,17.27
2018-10-04T18:20:51.474Z,16.80
2018-10-04T18:23:18.662Z,18.57
2018-10-04T18:25:45.857Z,14.47
2018-10-04T18:28:13.146Z,13.63
2018-10-04T18:30:40.321Z,12.63
2018-10-04T18:33:07.543Z,18.87
2018-10-04T18:35:34.782Z,23.87
2018-10-04T18:38:01.969Z,15.47
2018-10-04T18:40:29.249Z,17.47
2018-10-04T18:42:56.449Z,14.80
2018-10-04T18:45:23.621Z,11.53
2018-10-04T18:47:50.922Z,15.63
2018-10-04T18:50:18.110Z,19.70
2018-10-04T18:52:45.415Z,18.33
2018-10-04T18:55:12.624Z,15.60
2018-10-04T18:57:39.790Z,12.67
2018-10-04T19:00:07.017Z,15.93
2018-10-04T19:02:34.206Z,14.23
2018-10-04T19:05:01.774Z,15.80
2018-10-04T19:07:28.993Z,12.60
2018-10-04T19:09:56.205Z,15.67
2018-10-04T19:12:23.393Z,10.10
2018-10-04T19:14:50.553Z,17.13
2018-10-04T19:17:17.964Z,13.00
2018-10-04T19:19:45.178Z,15.43
2018-10-04T19:22:12.373Z,12.43
2018-10-04T19:24:39.653Z,15.23
2018-10-04T19:27:06.853Z,12.87
2018-10-04T19:29:34.046Z,14.40
2018-10-04T19:32:01.342Z,11.87
2018-10-04T19:34:28.618Z,13.17
2018-10-04T19:36:55.785Z,12.20
2018-10-04T19:39:22.963Z,10.60
2018-10-04T19:41:50.214Z,15.20
2018-10-04T19:44:17.495Z,16.23
2018-10-04T19:46:44.821Z,11.67
2018-10-04T19:49:11.978Z,12.50
2018-10-04T19:51:39.181Z,10.60
2018-10-04T19:54:06.454Z,13.57
2018-10-04T19:56:33.637Z,9.60
2018-10-04T19:59:01.030Z,13.47
2018-10-04T20:01:30.401Z,15.83
2018-10-04T20:03:57.623Z,15.50
2018-10-04T20:06:24.795Z,11.27
2018-10-04T20:08:51.982Z,11.10
2018-10-04T20:11:19.273Z,16.13
2018-10-04T20:13:46.697Z,14.13
2018-10-04T20:16:13.893Z,9.60
2018-10-04T20:18:41.115Z,10.90
2018-10-04T20:21:08.312Z,13.67
2018-10-04T20:23:35.550Z,11.67
2018-10-04T20:26:02.722Z,15.07
2018-10-04T20:28:29.918Z,14.10
2018-10-04T20:30:57.113Z,10.10
2018-10-04T20:33:24.343Z,9.63
2018-10-04T20:35:51.621Z,11.00
2018-10-04T20:38:18.899Z,10.73
2018-10-04T20:40:46.090Z,15.20
2018-10-04T20:43:13.282Z,16.37
2018-10-04T20:45:40.472Z,14.13
2018-10-04T20:48:07.762Z,15.53
2018-10-04T20:50:35.024Z,13.97
2018-10-04T20:53:02.225Z,9.37
2018-10-04T20:55:29.450Z,12.90
2018-10-04T20:57:56.665Z,13.20
2018-10-04T21:00:23.943Z,13.33
2018-10-04T21:02:51.131Z,12.77
2018-10-04T21:05:18.344Z,13.23
2018-10-04T21:07:45.625Z,13.30
2018-10-04T21:10:12.919Z,9.33
2018-10-04T21:12:40.085Z,10.23
2018-10-04T21:15:07.312Z,11.07
2018-10-04T21:17:34.639Z,11.70
2018-10-04T21:20:01.805Z,18.50
2018-10-04T21:22:29.061Z,11.10
2018-10-04T21:24:56.294Z,14.10
2018-10-04T21:27:23.514Z,9.70
2018-10-04T21:29:50.741Z,13.77
2018-10-04T21:32:17.989Z,16.37
2018-10-04T21:34:45.204Z,13.67
2018-10-04T21:37:12.422Z,14.03
2018-10-04T21:39:39.670Z,15.87
2018-10-04T21:42:06.869Z,11.93
2018-10-04T21:44:34.057Z,15.77
2018-10-04T21:47:01.445Z,13.47
2018-10-04T21:49:28.642Z,14.93
2018-10-04T21:51:56.014Z,10.00
2018-10-04T21:54:23.237Z,14.93
2018-10-04T21:56:50.629Z,11.07
2018-10-04T21:59:17.843Z,12.77
2018-10-04T22:01:45.130Z,17.23
2018-10-04T22:04:12.506Z,15.93
2018-10-04T22:06:39.738Z,13.93
2018-10-04T22:09:07.593Z,10.20
2018-10-04T22:11:34.870Z,12.17
2018-10-04T22:14:02.124Z,16.27
2018-10-04T22:16:29.723Z,12.33
2018-10-04T22:18:57.006Z,16.47
2018-10-04T22:21:24.233Z,12.77
2018-10-04T22:23:51.501Z,12.77
2018-10-04T22:26:18.779Z,11.80
2018-10-04T22:28:47.980Z,10.83
2018-10-04T22:31:15.508Z,10.27
2018-10-04T22:33:42.773Z,14.70
2018-10-04T22:36:09.967Z,17.37
2018-10-04T22:38:37.254Z,7.83
2018-10-04T22:41:04.594Z,9.63
2018-10-04T22:43:31.881Z,10.30
2018-10-04T22:45:59.081Z,16.93
2018-10-04T22:48:26.302Z,10.03
2018-10-04T22:50:53.506Z,8.93
2018-10-04T22:53:20.707Z,11.80
2018-10-04T22:55:47.876Z,8.67
2018-10-04T22:58:15.147Z,11.23
2018-10-04T23:00:42.393Z,8.60
2018-10-04T23:03:09.709Z,10.70
2018-10-04T23:05:36.972Z,7.60
2018-10-04T23:08:04.372Z,11.70
2018-10-04T23:10:31.584Z,11.13
2018-10-04T23:12:58.838Z,8.33
2018-10-04T23:15:26.070Z,8.70
2018-10-04T23:17:53.386Z,7.33
2018-10-04T23:20:20.646Z,11.13
2018-10-04T23:22:48.373Z,14.10
2018-10-04T23:25:16.429Z,7.80
2018-10-04T23:27:44.089Z,7.17
2018-10-04T23:30:11.378Z,8.20
2018-10-04T23:32:38.594Z,10.93
2018-10-04T23:35:05.858Z,10.73
2018-10-04T23:37:33.117Z,8.00
2018-10-04T23:40:00.355Z,10.47
2018-10-04T23:42:27.568Z,10.30
2018-10-04T23:44:55.121Z,11.50
2018-10-04T23:47:22.403Z,11.93
2018-10-04T23:49:49.668Z,12.03
2018-10-04T23:52:16.863Z,11.47
2018-10-04T23:54:44.155Z,10.83
2018-10-04T23:57:11.306Z,12.60
2018-10-04T23:59:38.522Z,9.70
